Hovedside
METAR-TAF:

METAR-TAF

Lufthavner :

Brønnøysund, Norge

Brønnøysund lufthavn. Brønnøy

breddegrad: 65-28N, lengdegrad: 012-13E, høyde over havet: 0 m

Gjeldene værobservasjon

Denne rapporten ble laget for 10 minutter siden, klokken 08:20 UTC
Vind 2 kt fra skiftende retning
Temperatur -4°C
Luftfuktighet 86%
Trykk 1008 hPa
Sikt 10 km eller mer
ingen skyer under 1500 m og ingen bygeskyer

METAR: ENBN 220820Z VRB02KT CAVOK M04/M06 Q1008

Tid: 09:30 (08:30 UTC)

Varsel

Denne rapporten ble laget for 3 timer og 30 minutter siden, klokken 05:00 UTC
Varsel gyldig fra 22. klokken 06 UTC til 22. klokken 15 UTC
Vind 5 kt fra skiftende retning
Sikt 10 km eller mer
Spredte skyer i en høyde av 4000 ft
Midlertidig
fra 22. klokken 06 UTC til 22. klokken 15 UTC
Vind 10 kt fra Sør-sørøst

TAF: ENBN 220500Z 2206/2215 VRB05KT 9999 SCT040 TEMPO 2206/2215 15010KT

Værobservasjoner og værvarsel for over 4000 flyplasser (METAR- og TAF-rapporter).

Tilgjengelige stasjoner er representert av de røde og gule prikkene på kartet.

Hold musepekeren over prikken for å se navnet på stasjonen.

Klikk så for å se værobservasjoner og -varsler.

For å forandre kartet kan du klikke på den grønne knappen med svart kryss for å zoome inn, på den grønne knappen med strek for å zoome ut, eller på de grønne pilene for å se tilstøtende kart.


METAR-TAF: